createdAt,value
2018-11-10T00:01:14.433Z,36.70
2018-11-10T00:03:48.889Z,37.90
2018-11-10T00:06:23.513Z,35.30
2018-11-10T00:08:57.937Z,38.90
2018-11-10T00:11:32.664Z,39.33
2018-11-10T00:14:07.236Z,40.50
2018-11-10T00:16:41.919Z,34.77
2018-11-10T00:19:16.465Z,34.10
2018-11-10T00:21:51.052Z,44.07
2018-11-10T00:24:25.555Z,32.83
2018-11-10T00:27:00.472Z,35.70
2018-11-10T00:29:35.090Z,34.93
2018-11-10T00:32:09.568Z,42.83
2018-11-10T00:34:44.127Z,43.53
2018-11-10T00:37:18.756Z,38.97
2018-11-10T00:39:53.329Z,31.90
2018-11-10T00:42:27.736Z,35.73
2018-11-10T00:45:02.431Z,35.93
2018-11-10T00:47:37.252Z,37.37
2018-11-10T00:50:11.652Z,34.80
2018-11-10T00:52:46.400Z,39.03
2018-11-10T00:55:20.971Z,37.80
2018-11-10T00:57:55.541Z,39.60
2018-11-10T01:00:30.083Z,41.00
2018-11-10T01:03:04.758Z,36.87
2018-11-10T01:05:39.444Z,41.60
2018-11-10T01:08:13.842Z,39.50
2018-11-10T01:10:48.412Z,40.83
2018-11-10T01:13:22.841Z,42.97
2018-11-10T01:15:57.480Z,41.63
2018-11-10T01:18:32.010Z,42.17
2018-11-10T01:21:06.681Z,39.03
2018-11-10T01:23:41.165Z,42.93
2018-11-10T01:26:15.722Z,46.03
2018-11-10T01:28:50.309Z,40.30
2018-11-10T01:31:24.904Z,46.50
2018-11-10T01:33:59.384Z,41.70
2018-11-10T01:36:34.020Z,44.37
2018-11-10T01:39:09.227Z,43.60
2018-11-10T01:41:43.669Z,46.17
2018-11-10T01:44:18.280Z,45.73
2018-11-10T01:46:52.880Z,48.93
2018-11-10T01:49:27.615Z,48.20
2018-11-10T01:52:02.234Z,42.90
2018-11-10T01:54:36.834Z,39.13
2018-11-10T01:57:11.413Z,41.80
2018-11-10T01:59:46.126Z,41.37
2018-11-10T02:02:20.651Z,43.33
2018-11-10T02:04:55.232Z,42.20
2018-11-10T02:07:29.816Z,43.53
2018-11-10T02:10:05.155Z,43.17
2018-11-10T02:12:39.544Z,39.80
2018-11-10T02:15:16.315Z,36.93
2018-11-10T02:17:50.713Z,46.60
2018-11-10T02:20:25.545Z,42.17
2018-11-10T02:23:00.247Z,40.87
2018-11-10T02:25:34.798Z,38.37
2018-11-10T02:28:09.225Z,46.13
2018-11-10T02:30:43.460Z,42.00
2018-11-10T02:33:17.949Z,38.10
2018-11-10T02:35:52.512Z,44.90
2018-11-10T02:38:27.336Z,40.23
2018-11-10T02:41:02.057Z,39.67
2018-11-10T02:43:36.735Z,47.83
2018-11-10T02:46:11.352Z,42.57
2018-11-10T02:48:45.892Z,36.20
2018-11-10T02:51:20.624Z,43.27
2018-11-10T02:53:55.048Z,42.37
2018-11-10T02:56:29.661Z,40.37
2018-11-10T02:59:04.376Z,41.73
2018-11-10T03:01:38.921Z,44.57
2018-11-10T03:04:13.573Z,45.40
2018-11-10T03:06:48.094Z,51.33
2018-11-10T03:09:22.365Z,42.83
2018-11-10T03:11:57.098Z,51.20
2018-11-10T03:14:31.730Z,48.27
2018-11-10T03:17:06.427Z,46.10
2018-11-10T03:19:41.073Z,46.77
2018-11-10T03:22:15.708Z,45.77
2018-11-10T03:24:50.283Z,52.73
2018-11-10T03:27:24.912Z,50.43
2018-11-10T03:29:59.456Z,43.80
2018-11-10T03:32:34.076Z,45.57
2018-11-10T03:35:09.298Z,45.27
2018-11-10T03:37:43.844Z,44.40
2018-11-10T03:40:18.330Z,45.67
2018-11-10T03:42:53.021Z,46.93
2018-11-10T03:45:27.598Z,46.87
2018-11-10T03:48:02.205Z,46.47
2018-11-10T03:50:36.789Z,48.13
2018-11-10T03:53:11.117Z,43.30
2018-11-10T03:55:45.548Z,45.17
2018-11-10T03:58:20.125Z,40.83
2018-11-10T04:00:54.803Z,47.77
2018-11-10T04:03:29.365Z,40.87
2018-11-10T04:06:03.986Z,43.77
2018-11-10T04:08:38.673Z,42.50
2018-11-10T04:11:13.324Z,40.97
2018-11-10T04:13:47.948Z,39.60
2018-11-10T04:16:22.715Z,37.43
2018-11-10T04:18:57.342Z,36.50
2018-11-10T04:21:31.833Z,38.37
2018-11-10T04:24:06.640Z,35.47
2018-11-10T04:26:41.373Z,34.67
2018-11-10T04:29:15.778Z,39.23
2018-11-10T04:31:50.225Z,39.17
2018-11-10T04:34:24.856Z,37.63
2018-11-10T04:36:59.520Z,43.53
2018-11-10T04:39:34.113Z,38.90
2018-11-10T04:42:08.787Z,35.47
2018-11-10T04:44:43.513Z,38.70
2018-11-10T04:47:17.749Z,35.60
2018-11-10T04:50:01.613Z,39.43
2018-11-10T04:52:36.228Z,39.70
2018-11-10T04:55:11.885Z,34.17
2018-11-10T04:57:46.496Z,39.53
2018-11-10T05:00:21.044Z,35.43
2018-11-10T05:02:55.692Z,36.03
2018-11-10T05:05:30.338Z,30.30
2018-11-10T05:08:05.122Z,39.57
2018-11-10T05:10:39.672Z,36.73
2018-11-10T05:13:14.267Z,31.57
2018-11-10T05:15:48.908Z,33.73
2018-11-10T05:18:23.546Z,35.27
2018-11-10T05:20:58.103Z,31.50
2018-11-10T05:23:32.504Z,33.13
2018-11-10T05:26:07.152Z,30.23
2018-11-10T05:28:41.567Z,32.07
2018-11-10T05:31:16.206Z,27.07
2018-11-10T05:33:50.670Z,28.93
2018-11-10T05:36:25.308Z,35.33
2018-11-10T05:38:59.932Z,29.70
2018-11-10T05:41:34.436Z,31.70
2018-11-10T05:44:09.004Z,27.07
2018-11-10T05:46:43.659Z,23.80
2018-11-10T05:49:18.360Z,28.50
2018-11-10T05:51:52.900Z,23.63
2018-11-10T05:54:27.124Z,25.77
2018-11-10T05:57:01.619Z,30.87
2018-11-10T05:59:35.999Z,27.03
2018-11-10T06:02:10.530Z,26.30
2018-11-10T06:04:44.837Z,27.43
2018-11-10T06:07:19.392Z,27.20
2018-11-10T06:09:54.092Z,30.10
2018-11-10T06:12:28.685Z,29.10
2018-11-10T06:15:03.356Z,25.77
2018-11-10T06:17:37.949Z,28.97
2018-11-10T06:20:13.581Z,28.57
2018-11-10T06:22:48.918Z,29.73
2018-11-10T06:25:23.541Z,25.10
2018-11-10T06:27:58.107Z,30.63
2018-11-10T06:30:33.521Z,25.57
2018-11-10T06:33:08.150Z,26.00
2018-11-10T06:35:42.700Z,26.33
2018-11-10T06:38:17.188Z,26.67
2018-11-10T06:40:51.845Z,34.13
2018-11-10T06:43:26.417Z,23.17
2018-11-10T06:46:01.050Z,28.10
2018-11-10T06:48:35.654Z,24.20
2018-11-10T06:51:10.398Z,25.97
2018-11-10T06:53:44.962Z,28.70
2018-11-10T06:56:19.525Z,33.23
2018-11-10T06:58:54.232Z,32.83
2018-11-10T07:01:29.095Z,24.67
2018-11-10T07:04:03.807Z,28.13
2018-11-10T07:06:38.369Z,29.13
2018-11-10T07:09:12.982Z,26.43
2018-11-10T07:11:47.374Z,25.83
2018-11-10T07:14:22.022Z,24.17
2018-11-10T07:16:56.557Z,25.93
2018-11-10T07:19:31.300Z,30.47
2018-11-10T07:22:06.042Z,28.80
2018-11-10T07:24:40.771Z,30.40
2018-11-10T07:27:15.360Z,27.23
2018-11-10T07:29:49.808Z,24.30
2018-11-10T07:32:24.446Z,29.57
2018-11-10T07:34:59.169Z,25.23
2018-11-10T07:37:33.766Z,24.30
2018-11-10T07:40:10.201Z,27.63
2018-11-10T07:42:44.784Z,24.90
2018-11-10T07:45:19.297Z,19.97
2018-11-10T07:47:53.853Z,21.73
2018-11-10T07:50:28.415Z,23.43
2018-11-10T07:53:03.125Z,26.47
2018-11-10T07:55:37.731Z,20.80
2018-11-10T07:58:12.424Z,22.60
2018-11-10T08:00:46.944Z,22.03
2018-11-10T08:03:21.648Z,23.13
2018-11-10T08:05:56.260Z,24.07
2018-11-10T08:08:31.029Z,29.27
2018-11-10T08:11:05.555Z,20.87
2018-11-10T08:13:40.133Z,21.60
2018-11-10T08:16:14.757Z,23.70
2018-11-10T08:18:49.182Z,21.17
2018-11-10T08:21:23.900Z,18.53
2018-11-10T08:23:58.454Z,18.23
2018-11-10T08:26:33.050Z,24.57
2018-11-10T08:29:07.558Z,19.53
2018-11-10T08:31:42.116Z,23.93
2018-11-10T08:34:16.761Z,22.10
2018-11-10T08:37:01.252Z,20.80
2018-11-10T08:39:35.950Z,21.90
2018-11-10T08:42:10.399Z,22.57
2018-11-10T08:44:45.065Z,21.83
2018-11-10T08:47:19.691Z,21.70
2018-11-10T08:49:54.091Z,22.70
2018-11-10T08:52:28.595Z,24.63
2018-11-10T08:55:03.173Z,22.10
2018-11-10T08:57:37.777Z,22.77
2018-11-10T09:00:12.820Z,21.13
2018-11-10T09:02:47.440Z,23.97
2018-11-10T09:05:21.994Z,20.33
2018-11-10T09:07:56.674Z,21.73
2018-11-10T09:10:31.296Z,19.93
2018-11-10T09:13:06.098Z,20.43
2018-11-10T09:15:40.649Z,22.90
2018-11-10T09:18:15.246Z,24.73
2018-11-10T09:20:49.827Z,26.07
2018-11-10T09:23:24.305Z,22.03
2018-11-10T09:25:58.776Z,26.37
2018-11-10T09:28:33.235Z,21.63
2018-11-10T09:31:07.721Z,24.87
2018-11-10T09:33:42.353Z,22.80
2018-11-10T09:36:17.050Z,26.03
2018-11-10T09:38:51.535Z,25.83
2018-11-10T09:41:26.036Z,22.33
2018-11-10T09:44:00.813Z,25.93
2018-11-10T09:46:35.204Z,21.00
2018-11-10T09:49:09.781Z,21.43
2018-11-10T09:51:44.459Z,24.23
2018-11-10T09:54:19.205Z,21.50
2018-11-10T09:56:53.792Z,21.13
2018-11-10T09:59:28.645Z,24.13
2018-11-10T10:02:03.802Z,23.30
2018-11-10T10:04:38.526Z,20.63
2018-11-10T10:07:13.405Z,25.00
2018-11-10T10:09:48.206Z,23.73
2018-11-10T10:12:23.005Z,22.80
2018-11-10T10:14:57.651Z,23.97
2018-11-10T10:17:32.619Z,22.87
2018-11-10T10:20:10.405Z,29.73
2018-11-10T10:22:46.064Z,22.77
2018-11-10T10:25:20.815Z,24.90
2018-11-10T10:27:55.377Z,26.23
2018-11-10T10:30:30.012Z,24.97
2018-11-10T10:33:04.628Z,26.17
2018-11-10T10:35:39.394Z,24.40
2018-11-10T10:38:13.979Z,25.00
2018-11-10T10:40:48.485Z,27.07
2018-11-10T10:43:23.248Z,21.57
2018-11-10T10:45:57.862Z,22.33
2018-11-10T10:48:32.503Z,26.67
2018-11-10T10:51:08.017Z,26.37
2018-11-10T10:53:42.705Z,34.17
2018-11-10T10:56:17.403Z,20.03
2018-11-10T10:58:52.017Z,24.37
2018-11-10T11:01:31.929Z,26.40
2018-11-10T11:04:11.860Z,24.53
2018-11-10T11:06:46.357Z,24.17
2018-11-10T11:09:21.043Z,24.10
2018-11-10T11:11:56.701Z,31.20
2018-11-10T11:14:31.493Z,23.30
2018-11-10T11:17:06.454Z,28.57
2018-11-10T11:19:41.201Z,26.90
2018-11-10T11:22:16.407Z,26.20
2018-11-10T11:24:51.297Z,25.90
2018-11-10T11:27:26.056Z,24.07
2018-11-10T11:30:00.833Z,21.97
2018-11-10T11:32:35.773Z,26.63
2018-11-10T11:35:12.372Z,23.90
2018-11-10T11:37:47.053Z,25.20
2018-11-10T11:40:21.749Z,26.17
2018-11-10T11:42:56.201Z,24.60
2018-11-10T11:45:30.828Z,24.77
2018-11-10T11:48:07.241Z,24.93
2018-11-10T11:50:41.851Z,25.60
2018-11-10T11:53:16.547Z,25.37
2018-11-10T11:55:50.998Z,21.00
2018-11-10T11:58:25.606Z,21.57
2018-11-10T12:01:00.160Z,24.03
2018-11-10T12:03:34.674Z,27.47
2018-11-10T12:06:09.216Z,27.10
2018-11-10T12:08:43.894Z,24.50
2018-11-10T12:11:18.307Z,18.70
2018-11-10T12:13:52.960Z,21.20
2018-11-10T12:16:27.672Z,23.53
2018-11-10T12:19:02.101Z,22.03
2018-11-10T12:21:36.738Z,21.77
2018-11-10T12:24:11.327Z,20.93
2018-11-10T12:26:46.056Z,22.77
2018-11-10T12:29:20.835Z,22.77
2018-11-10T12:31:55.707Z,23.97
2018-11-10T12:34:30.417Z,26.07
2018-11-10T12:37:05.297Z,20.63
2018-11-10T12:39:40.724Z,20.40
2018-11-10T12:42:15.378Z,22.30
2018-11-10T12:44:49.934Z,21.10
2018-11-10T12:47:25.799Z,21.10
2018-11-10T12:50:00.456Z,20.90
2018-11-10T12:52:35.277Z,24.80
2018-11-10T12:55:11.306Z,25.60
2018-11-10T12:57:46.645Z,20.60
2018-11-10T13:00:21.238Z,23.77
2018-11-10T13:02:55.834Z,21.13
2018-11-10T13:05:30.368Z,19.23
2018-11-10T13:08:04.992Z,21.90
2018-11-10T13:10:39.505Z,19.87
2018-11-10T13:13:14.212Z,23.50
2018-11-10T13:15:48.925Z,20.90
2018-11-10T13:18:23.921Z,20.33
2018-11-10T13:21:03.876Z,26.40
2018-11-10T13:23:38.514Z,23.07
2018-11-10T13:26:13.093Z,23.90
2018-11-10T13:28:48.229Z,21.60
2018-11-10T13:31:23.093Z,25.70
2018-11-10T13:33:57.567Z,18.73
2018-11-10T13:36:32.112Z,23.63
2018-11-10T13:39:07.896Z,24.30
2018-11-10T13:41:42.454Z,19.00
2018-11-10T13:44:17.113Z,21.50
2018-11-10T13:46:51.749Z,21.90
2018-11-10T13:49:26.316Z,22.93
2018-11-10T13:52:01.165Z,22.77
2018-11-10T13:54:35.763Z,26.23
2018-11-10T13:57:10.448Z,20.63
2018-11-10T13:59:44.939Z,20.10
2018-11-10T14:02:19.568Z,25.07
2018-11-10T14:04:54.268Z,22.93
2018-11-10T14:07:28.890Z,25.93
2018-11-10T14:10:03.468Z,21.53
2018-11-10T14:12:37.975Z,25.20
2018-11-10T14:15:12.536Z,20.73
2018-11-10T14:17:47.121Z,23.87
2018-11-10T14:20:21.828Z,22.13
2018-11-10T14:22:56.501Z,22.10
2018-11-10T14:25:30.994Z,22.33
2018-11-10T14:28:05.857Z,23.63
2018-11-10T14:30:40.424Z,20.43
2018-11-10T14:33:15.016Z,21.23
2018-11-10T14:35:49.699Z,24.43
2018-11-10T14:38:24.292Z,20.53
2018-11-10T14:40:59.123Z,17.03
2018-11-10T14:43:33.860Z,22.93
2018-11-10T14:46:08.536Z,19.67
2018-11-10T14:48:43.044Z,23.90
2018-11-10T14:51:17.472Z,23.20
2018-11-10T14:53:52.099Z,23.40
2018-11-10T14:56:26.720Z,23.17
2018-11-10T14:59:01.280Z,21.80
2018-11-10T15:01:35.930Z,20.77
2018-11-10T15:04:10.656Z,17.50
2018-11-10T15:06:45.182Z,19.07
2018-11-10T15:09:20.005Z,23.30
2018-11-10T15:11:54.683Z,21.37
2018-11-10T15:14:29.088Z,16.90
2018-11-10T15:17:03.669Z,17.07
2018-11-10T15:19:38.177Z,20.83
2018-11-10T15:22:13.557Z,21.10
2018-11-10T15:24:48.301Z,20.40
2018-11-10T15:27:23.058Z,17.13
2018-11-10T15:29:57.799Z,24.67
2018-11-10T15:32:32.622Z,16.50
2018-11-10T15:35:08.488Z,17.97
2018-11-10T15:37:44.297Z,21.17
2018-11-10T15:40:19.216Z,21.73
2018-11-10T15:42:53.734Z,20.77
2018-11-10T15:45:28.379Z,21.57
2018-11-10T15:48:03.037Z,23.30
2018-11-10T15:50:37.573Z,21.63
2018-11-10T15:53:12.073Z,22.93
2018-11-10T15:55:46.604Z,24.23
2018-11-10T15:58:21.166Z,17.97
2018-11-10T16:00:55.781Z,17.87
2018-11-10T16:03:30.232Z,20.73
2018-11-10T16:06:05.005Z,19.43
2018-11-10T16:08:39.561Z,16.27
2018-11-10T16:11:14.310Z,18.17
2018-11-10T16:13:48.839Z,24.33
2018-11-10T16:16:23.469Z,22.27
2018-11-10T16:18:58.053Z,22.63
2018-11-10T16:21:32.799Z,24.17
2018-11-10T16:24:07.626Z,21.07
2018-11-10T16:26:42.197Z,18.97
2018-11-10T16:29:16.901Z,19.37
2018-11-10T16:31:51.605Z,20.37
2018-11-10T16:34:26.241Z,17.10
2018-11-10T16:37:00.820Z,22.33
2018-11-10T16:39:35.477Z,22.00
2018-11-10T16:42:10.110Z,18.90
2018-11-10T16:44:44.618Z,23.03
2018-11-10T16:47:19.280Z,24.63
2018-11-10T16:49:53.701Z,18.27
2018-11-10T16:52:28.362Z,26.47
2018-11-10T16:55:04.050Z,21.20
2018-11-10T16:57:39.024Z,18.67
2018-11-10T17:00:16.482Z,26.40
2018-11-10T17:02:51.092Z,19.97
2018-11-10T17:05:25.604Z,27.13
2018-11-10T17:08:00.254Z,20.93
2018-11-10T17:10:34.731Z,21.13
2018-11-10T17:13:09.255Z,21.03
2018-11-10T17:15:44.060Z,23.73
2018-11-10T17:18:18.578Z,19.87
2018-11-10T17:20:53.198Z,21.77
2018-11-10T17:23:27.640Z,26.17
2018-11-10T17:26:03.154Z,20.80
2018-11-10T17:28:37.822Z,29.83
2018-11-10T17:31:12.299Z,18.77
2018-11-10T17:33:46.936Z,21.70
2018-11-10T17:36:21.408Z,24.83
2018-11-10T17:38:56.082Z,20.87
2018-11-10T17:41:30.723Z,23.37
2018-11-10T17:44:05.931Z,23.37
2018-11-10T17:46:40.551Z,20.27
2018-11-10T17:49:15.243Z,21.77
2018-11-10T17:51:49.898Z,19.77
2018-11-10T17:54:24.552Z,26.83
2018-11-10T17:56:59.112Z,22.30
2018-11-10T17:59:33.636Z,24.77
2018-11-10T18:02:08.297Z,21.60
2018-11-10T18:04:42.860Z,20.67
2018-11-10T18:07:17.406Z,28.13
2018-11-10T18:09:52.055Z,21.23
2018-11-10T18:12:26.687Z,22.60
2018-11-10T18:15:01.388Z,24.43
2018-11-10T18:17:36.085Z,18.03
2018-11-10T18:20:12.302Z,23.13
2018-11-10T18:22:47.278Z,23.37
2018-11-10T18:25:22.077Z,20.53
2018-11-10T18:27:56.609Z,22.53
2018-11-10T18:30:31.288Z,18.97
2018-11-10T18:33:05.804Z,20.70
2018-11-10T18:35:40.565Z,20.20
2018-11-10T18:38:15.016Z,24.80
2018-11-10T18:40:49.506Z,20.17
2018-11-10T18:43:24.249Z,19.97
2018-11-10T18:45:58.676Z,22.70
2018-11-10T18:48:33.345Z,22.47
2018-11-10T18:51:08.042Z,20.20
2018-11-10T18:53:42.801Z,20.60
2018-11-10T18:56:17.383Z,22.03
2018-11-10T18:58:51.976Z,23.30
2018-11-10T19:01:26.421Z,22.70
2018-11-10T19:04:00.940Z,24.63
2018-11-10T19:06:35.502Z,21.80
2018-11-10T19:09:11.928Z,23.13
2018-11-10T19:11:46.405Z,18.93
2018-11-10T19:14:20.997Z,20.23
2018-11-10T19:16:55.512Z,27.63
2018-11-10T19:19:30.036Z,27.10
2018-11-10T19:22:04.831Z,24.17
2018-11-10T19:24:39.469Z,23.60
2018-11-10T19:27:14.077Z,22.13
2018-11-10T19:29:48.794Z,24.03
2018-11-10T19:32:23.530Z,29.00
2018-11-10T19:34:58.115Z,26.57
2018-11-10T19:37:32.739Z,29.37
2018-11-10T19:40:08.117Z,25.47
2018-11-10T19:42:44.391Z,23.00
2018-11-10T19:45:18.909Z,22.37
2018-11-10T19:47:53.468Z,22.53
2018-11-10T19:50:28.143Z,21.00
2018-11-10T19:53:02.616Z,26.60
2018-11-10T19:55:37.164Z,26.53
2018-11-10T19:58:11.732Z,26.47
2018-11-10T20:00:46.392Z,24.67
2018-11-10T20:03:20.910Z,20.67
2018-11-10T20:05:55.400Z,24.47
2018-11-10T20:08:29.960Z,24.07
2018-11-10T20:11:04.502Z,22.43
2018-11-10T20:13:39.096Z,22.60
2018-11-10T20:16:13.414Z,21.77
2018-11-10T20:18:48.040Z,24.63
2018-11-10T20:21:22.553Z,21.80
2018-11-10T20:23:57.161Z,23.20
2018-11-10T20:26:31.700Z,22.40
2018-11-10T20:29:07.324Z,22.63
2018-11-10T20:31:41.808Z,26.27
2018-11-10T20:34:16.433Z,23.13
2018-11-10T20:36:51.066Z,22.87
2018-11-10T20:39:25.573Z,23.50
2018-11-10T20:42:00.125Z,27.63
2018-11-10T20:44:34.760Z,19.67
2018-11-10T20:47:09.394Z,22.43
2018-11-10T20:49:44.184Z,22.50
2018-11-10T20:52:18.793Z,19.20
2018-11-10T20:54:53.458Z,23.00
2018-11-10T20:57:27.955Z,19.80
2018-11-10T21:00:03.153Z,29.10
2018-11-10T21:02:38.211Z,21.63
2018-11-10T21:05:13.237Z,22.20
2018-11-10T21:07:47.774Z,19.83
2018-11-10T21:10:22.505Z,22.93
2018-11-10T21:12:57.116Z,23.13
2018-11-10T21:15:31.685Z,19.07
2018-11-10T21:18:06.301Z,22.60
2018-11-10T21:20:40.865Z,24.47
2018-11-10T21:23:15.425Z,26.90
2018-11-10T21:25:49.969Z,25.80
2018-11-10T21:28:24.756Z,26.87
2018-11-10T21:30:59.371Z,23.20
2018-11-10T21:33:33.885Z,24.03
2018-11-10T21:36:08.665Z,20.93
2018-11-10T21:38:43.011Z,24.73
2018-11-10T21:41:17.578Z,25.27
2018-11-10T21:43:52.184Z,26.13
2018-11-10T21:46:26.863Z,24.47
2018-11-10T21:49:01.484Z,28.33
2018-11-10T21:51:36.126Z,23.40
2018-11-10T21:54:10.693Z,21.20
2018-11-10T21:56:45.391Z,21.20
2018-11-10T21:59:20.152Z,29.13
2018-11-10T22:01:54.708Z,20.80
2018-11-10T22:04:29.318Z,18.93
2018-11-10T22:07:03.894Z,20.87
2018-11-10T22:09:38.614Z,21.00
2018-11-10T22:12:13.113Z,21.93
2018-11-10T22:14:47.624Z,20.53
2018-11-10T22:17:22.246Z,19.47
2018-11-10T22:19:56.722Z,17.40
2018-11-10T22:22:31.398Z,20.30
2018-11-10T22:25:06.808Z,16.63
2018-11-10T22:27:42.665Z,20.80
2018-11-10T22:30:18.428Z,23.27
2018-11-10T22:32:52.936Z,21.20
2018-11-10T22:35:27.536Z,19.57
2018-11-10T22:38:02.099Z,27.53
2018-11-10T22:40:36.644Z,18.90
2018-11-10T22:43:11.336Z,24.03
2018-11-10T22:45:45.913Z,22.80
2018-11-10T22:48:20.614Z,25.43
2018-11-10T22:50:55.466Z,24.00
2018-11-10T22:53:30.255Z,20.13
2018-11-10T22:56:05.173Z,21.10
2018-11-10T22:58:39.590Z,26.07
2018-11-10T23:01:14.179Z,21.13
2018-11-10T23:03:55.463Z,21.87
2018-11-10T23:06:29.960Z,25.30
2018-11-10T23:09:07.223Z,20.83
2018-11-10T23:11:41.727Z,25.53
2018-11-10T23:14:16.357Z,27.43
2018-11-10T23:16:50.937Z,26.10
2018-11-10T23:19:25.403Z,25.00
2018-11-10T23:22:00.049Z,24.47
2018-11-10T23:24:34.678Z,28.53
2018-11-10T23:27:09.271Z,31.20
2018-11-10T23:29:43.973Z,28.67
2018-11-10T23:32:18.714Z,26.43
2018-11-10T23:34:53.239Z,20.70
2018-11-10T23:37:27.904Z,26.47
2018-11-10T23:40:02.393Z,24.70
2018-11-10T23:42:36.977Z,29.60
2018-11-10T23:45:12.259Z,26.43
2018-11-10T23:47:46.899Z,24.10
2018-11-10T23:50:21.578Z,19.23
2018-11-10T23:52:56.289Z,29.20
2018-11-10T23:55:30.899Z,25.20
2018-11-10T23:58:05.541Z,21.80
